Wilsonville, Nebraska
Current Conditions -  °F | °C
As of 7:53 AM on Thursday 30 Oct 2014 (Local Time) from KMCK Reporting Station
Clear Clear  
Wind Chill: 32°   Ceiling: Unl
Heat Index: 39°   Visibility: 10mi
Dew Point: 26°   Wind: 12mph
Humidity: 60%   Direction: 280°W
Pressure: 30.21"   Gusts: NA
Location:  40.11°N, 100.11°W
Report Text: KMCK 301253Z AUTO 28010KT 10SM CLR 04/M03 A3021 RMK AO2 SLP235 T00391033
Loading
Personal Weather Stations






























Interactive Weather Map
Tropical Storm Tracking
New forecast layout! Learn more

10-Day Weather Forecast

Advertisements
Track Severe Weather on mobile